Observation data for Hereford on 07/20/2019      Previous  Date       Current Mesonet Observations  Soil Data  Daily Summary Page  Observations in Plain Language
KHES 200500Z 18010KT 28/13 A2995 RMK A01 T02830126  RH  039%=      5-min Rain = 0
KHES 200505Z 18010KT 28/13 A2995 RMK A01 T02830126  RH  039%=      5-min Rain = 0
KHES 200510Z 17010G16KT 28/13 A2995 RMK A01 T02820126  RH  040%=      5-min Rain = 0
KHES 200515Z 18010KT 28/13 A2995 RMK A01 T02830126  RH  040%=      5-min Rain = 0
KHES 200520Z 18010G15KT 28/13 A2995 RMK A01 T02810127  RH  040%=      5-min Rain = 0
KHES 200525Z 18010KT 28/13 A2995 RMK A01 T02800127  RH  040%=      5-min Rain = 0
KHES 200530Z 17010KT 28/13 A2995 RMK A01 T02790128  RH  041%=      5-min Rain = 0
KHES 200535Z 18010G15KT 28/13 A2995 RMK A01 T02780128  RH  041%=      5-min Rain = 0
KHES 200540Z 18010KT 28/13 A2995 RMK A01 T02760129  RH  042%=      5-min Rain = 0
KHES 200545Z 18011KT 28/13 A2995 RMK A01 T02760129  RH  042%=      5-min Rain = 0
KHES 200550Z 18010G16KT 28/13 A2996 RMK A01 T02760129  RH  042%=      5-min Rain = 0
KHES 200555Z 18011KT 28/13 A2996 RMK A01 T02750130  RH  042%=      5-min Rain = 0
KHES 200600Z 18011KT 28/13 A2996 RMK A01 T02750130  RH  042%=      5-min Rain = 0
KHES 200605Z 18011G17KT 27/13 A2996 RMK A01 T02740130  RH  043%=      5-min Rain = 0
KHES 200610Z 18013KT 28/13 A2995 RMK A01 T02750131  RH  043%=      5-min Rain = 0
KHES 200615Z 18013G18KT 28/13 A2995 RMK A01 T02750130  RH  042%=      5-min Rain = 0
KHES 200620Z 19013KT 28/13 A2995 RMK A01 T02760130  RH  042%=      5-min Rain = 0
KHES 200625Z 19013G18KT 28/13 A2995 RMK A01 T02750130  RH  042%=      5-min Rain = 0
KHES 200630Z 19014G19KT 28/13 A2995 RMK A01 T02770129  RH  042%=      5-min Rain = 0
KHES 200635Z 18014G20KT 28/13 A2995 RMK A01 T02750129  RH  042%=      5-min Rain = 0
KHES 200640Z 19013G18KT 27/13 A2995 RMK A01 T02730128  RH  042%=      5-min Rain = 0
KHES 200645Z 19013G21KT 27/13 A2995 RMK A01 T02720128  RH  042%=      5-min Rain = 0
KHES 200650Z 19013G19KT 27/13 A2995 RMK A01 T02710128  RH  043%=      5-min Rain = 0
KHES 200655Z 19013G18KT 27/13 A2995 RMK A01 T02700127  RH  043%=      5-min Rain = 0
KHES 200700Z 19012G17KT 27/13 A2995 RMK A01 T02690127  RH  043%=      5-min Rain = 0
KHES 200705Z 19012G17KT 27/13 A2996 RMK A01 T02690126  RH  043%=      5-min Rain = 0
KHES 200710Z 19013KT 27/13 A2996 RMK A01 T02680126  RH  043%=      5-min Rain = 0
KHES 200715Z 18012G17KT 27/13 A2996 RMK A01 T02660125  RH  043%=      5-min Rain = 0
KHES 200720Z 19011KT 27/13 A2996 RMK A01 T02650125  RH  044%=      5-min Rain = 0
KHES 200725Z 19011KT 26/12 A2996 RMK A01 T02630124  RH  044%=      5-min Rain = 0
KHES 200730Z 18012G19KT 26/12 A2996 RMK A01 T02620124  RH  044%=      5-min Rain = 0
KHES 200735Z 18011KT 26/12 A2996 RMK A01 T02610124  RH  044%=      5-min Rain = 0
KHES 200740Z 19011KT 26/12 A2996 RMK A01 T02600123  RH  044%=      5-min Rain = 0
KHES 200745Z 19010KT 26/12 A2996 RMK A01 T02580123  RH  045%=      5-min Rain = 0
KHES 200750Z 18010G15KT 26/12 A2996 RMK A01 T02570123  RH  045%=      5-min Rain = 0
KHES 200755Z 19009G15KT 26/12 A2996 RMK A01 T02560123  RH  045%=      5-min Rain = 0
KHES 200800Z 19010KT 26/12 A2996 RMK A01 T02550122  RH  045%=      5-min Rain = 0
KHES 200805Z 19010G15KT 26/12 A2996 RMK A01 T02550121  RH  045%=      5-min Rain = 0
KHES 200810Z 19010G15KT 26/12 A2996 RMK A01 T02560120  RH  044%=      5-min Rain = 0
KHES 200815Z 19011G16KT 26/12 A2996 RMK A01 T02560119  RH  044%=      5-min Rain = 0
KHES 200820Z 19011KT 26/12 A2996 RMK A01 T02550119  RH  044%=      5-min Rain = 0
KHES 200825Z 19011KT 25/12 A2996 RMK A01 T02530119  RH  045%=      5-min Rain = 0
KHES 200830Z 19010G15KT 25/12 A2997 RMK A01 T02520119  RH  045%=      5-min Rain = 0
KHES 200835Z 19011KT 25/12 A2996 RMK A01 T02520118  RH  045%=      5-min Rain = 0
KHES 200840Z 19010G15KT 25/12 A2997 RMK A01 T02510118  RH  045%=      5-min Rain = 0
KHES 200845Z 19010G15KT 25/12 A2997 RMK A01 T02490118  RH  045%=      5-min Rain = 0
KHES 200850Z 20011G17KT 25/12 A2996 RMK A01 T02490117  RH  045%=      5-min Rain = 0
KHES 200855Z 19011G17KT 25/12 A2996 RMK A01 T02490117  RH  045%=      5-min Rain = 0
KHES 200900Z 20011KT 25/12 A2996 RMK A01 T02490117  RH  045%=      5-min Rain = 0
KHES 200905Z 20011KT 25/12 A2996 RMK A01 T02470116  RH  046%=      5-min Rain = 0
KHES 200910Z 20010G15KT 25/12 A2996 RMK A01 T02470116  RH  046%=      5-min Rain = 0
KHES 200915Z 20010KT 25/12 A2996 RMK A01 T02460115  RH  046%=      5-min Rain = 0
KHES 200920Z 20011KT 25/12 A2996 RMK A01 T02460115  RH  046%=      5-min Rain = 0
KHES 200925Z 19010KT 24/12 A2996 RMK A01 T02440116  RH  046%=      5-min Rain = 0
KHES 200930Z 19011G17KT 24/12 A2996 RMK A01 T02430115  RH  046%=      5-min Rain = 0
KHES 200935Z 19010G15KT 24/12 A2996 RMK A01 T02430115  RH  046%=      5-min Rain = 0
KHES 200940Z 20010KT 24/12 A2996 RMK A01 T02410115  RH  047%=      5-min Rain = 0
KHES 200945Z 21009KT 24/12 A2996 RMK A01 T02410115  RH  047%=      5-min Rain = 0
KHES 200950Z 21010KT 24/12 A2996 RMK A01 T02400116  RH  047%=      5-min Rain = 0
KHES 200955Z 21008KT 24/12 A2996 RMK A01 T02360116  RH  048%=      5-min Rain = 0
KHES 201000Z 21008KT 23/12 A2996 RMK A01 T02340115  RH  049%=      5-min Rain = 0
KHES 201005Z 20009KT 23/12 A2996 RMK A01 T02330115  RH  049%=      5-min Rain = 0
KHES 201010Z 21010KT 23/12 A2996 RMK A01 T02330115  RH  049%=      5-min Rain = 0
KHES 201015Z 21007KT 23/12 A2996 RMK A01 T02310115  RH  050%=      5-min Rain = 0
KHES 201020Z 21007KT 23/12 A2996 RMK A01 T02270116  RH  051%=      5-min Rain = 0
KHES 201025Z 20008KT 23/12 A2996 RMK A01 T02250116  RH  052%=      5-min Rain = 0
KHES 201030Z 20008KT 22/12 A2996 RMK A01 T02240116  RH  052%=      5-min Rain = 0
KHES 201035Z 20009KT 23/12 A2996 RMK A01 T02260115  RH  051%=      5-min Rain = 0
KHES 201040Z 20008KT 23/12 A2996 RMK A01 T02270115  RH  051%=      5-min Rain = 0
KHES 201045Z 20009KT 23/12 A2996 RMK A01 T02270115  RH  051%=      5-min Rain = 0
KHES 201050Z 20007KT 23/12 A2996 RMK A01 T02260116  RH  052%=      5-min Rain = 0
KHES 201055Z 20008KT 23/12 A2996 RMK A01 T02250116  RH  052%=      5-min Rain = 0
KHES 201100Z 20009KT 23/12 A2996 RMK A01 T02250116  RH  052%=      5-min Rain = 0
KHES 201105Z 20008KT 22/12 A2996 RMK A01 T02240116  RH  052%=      5-min Rain = 0
KHES 201110Z 20009KT 22/12 A2996 RMK A01 T02220116  RH  053%=      5-min Rain = 0
KHES 201115Z 20009KT 22/12 A2996 RMK A01 T02210116  RH  053%=      5-min Rain = 0
KHES 201120Z 20008KT 22/12 A2996 RMK A01 T02220116  RH  053%=      5-min Rain = 0
KHES 201125Z 20008KT 22/12 A2996 RMK A01 T02210116  RH  053%=      5-min Rain = 0
KHES 201130Z 19008KT 22/12 A2996 RMK A01 T02190116  RH  054%=      5-min Rain = 0
KHES 201135Z 20008KT 22/12 A2996 RMK A01 T02190116  RH  054%=      5-min Rain = 0
KHES 201140Z 20008KT 22/12 A2996 RMK A01 T02200116  RH  054%=      5-min Rain = 0
KHES 201145Z 19007KT 22/12 A2996 RMK A01 T02190117  RH  054%=      5-min Rain = 0
KHES 201150Z 19007KT 22/12 A2997 RMK A01 T02160118  RH  055%=      5-min Rain = 0
KHES 201155Z 19007KT 21/12 A2997 RMK A01 T02130119  RH  057%=      5-min Rain = 0
KHES 201200Z 20006KT 21/12 A2997 RMK A01 T02130118  RH  057%=      5-min Rain = 0
KHES 201205Z 21006KT 21/12 A2997 RMK A01 T02140118  RH  056%=      5-min Rain = 0
KHES 201210Z 21006KT 21/12 A2997 RMK A01 T02130118  RH  057%=      5-min Rain = 0
KHES 201215Z 22006KT 21/12 A2997 RMK A01 T02110118  RH  057%=      5-min Rain = 0
KHES 201220Z 21007KT 21/12 A2997 RMK A01 T02100118  RH  058%=      5-min Rain = 0
KHES 201225Z 20007KT 21/12 A2997 RMK A01 T02110119  RH  057%=      5-min Rain = 0
KHES 201230Z 19007KT 22/12 A2997 RMK A01 T02150119  RH  056%=      5-min Rain = 0
KHES 201235Z 19008KT 22/12 A2997 RMK A01 T02180120  RH  056%=      5-min Rain = 0
KHES 201240Z 19008KT 22/12 A2997 RMK A01 T02190120  RH  055%=      5-min Rain = 0
KHES 201245Z 18009KT 22/12 A2997 RMK A01 T02200121  RH  055%=      5-min Rain = 0
KHES 201250Z 18009KT 22/12 A2997 RMK A01 T02210122  RH  056%=      5-min Rain = 0
KHES 201255Z 18008KT 22/12 A2997 RMK A01 T02220123  RH  055%=      5-min Rain = 0
KHES 201300Z 18008KT 22/12 A2997 RMK A01 T02240123  RH  055%=      5-min Rain = 0
KHES 201305Z 19009KT 23/12 A2997 RMK A01 T02260123  RH  054%=      5-min Rain = 0
KHES 201310Z 19009KT 23/12 A2997 RMK A01 T02300123  RH  053%=      5-min Rain = 0
KHES 201315Z 19009KT 23/12 A2997 RMK A01 T02330124  RH  052%=      5-min Rain = 0
KHES 201320Z 19009KT 24/12 A2997 RMK A01 T02360124  RH  051%=      5-min Rain = 0
KHES 201325Z 20011KT 24/13 A2997 RMK A01 T02390125  RH  051%=      5-min Rain = 0
KHES 201330Z 19011KT 24/13 A2997 RMK A01 T02430125  RH  050%=      5-min Rain = 0
KHES 201335Z 19011G16KT 25/13 A2997 RMK A01 T02460126  RH  049%=      5-min Rain = 0
KHES 201340Z 20011G16KT 25/13 A2997 RMK A01 T02480126  RH  049%=      5-min Rain = 0
KHES 201345Z 20011G16KT 25/13 A2997 RMK A01 T02510127  RH  048%=      5-min Rain = 0
KHES 201350Z 20010G15KT 25/13 A2997 RMK A01 T02540128  RH  048%=      5-min Rain = 0
KHES 201355Z 21015G21KT 26/13 A2997 RMK A01 T02550127  RH  047%=      5-min Rain = 0
KHES 201400Z 21014G19KT 26/13 A2998 RMK A01 T02550127  RH  047%=      5-min Rain = 0
KHES 201405Z 21012KT 26/13 A2998 RMK A01 T02570128  RH  047%=      5-min Rain = 0
KHES 201410Z 20010KT 26/13 A2997 RMK A01 T02590129  RH  046%=      5-min Rain = 0
KHES 201415Z 20010G15KT 26/13 A2998 RMK A01 T02630131  RH  046%=      5-min Rain = 0
KHES 201420Z 20012G17KT 26/13 A2998 RMK A01 T02640130  RH  045%=      5-min Rain = 0
KHES 201425Z 20012G17KT 27/13 A2997 RMK A01 T02670131  RH  045%=      5-min Rain = 0
KHES 201430Z 21015G20KT 27/13 A2997 RMK A01 T02690131  RH  044%=      5-min Rain = 0
KHES 201435Z 21014G19KT 27/13 A2997 RMK A01 T02690131  RH  044%=      5-min Rain = 0
KHES 201440Z 20014G19KT 27/13 A2997 RMK A01 T02720131  RH  044%=      5-min Rain = 0
KHES 201445Z 20013G19KT 27/13 A2997 RMK A01 T02740132  RH  043%=      5-min Rain = 0
KHES 201450Z 20013G20KT 28/13 A2997 RMK A01 T02770133  RH  043%=      5-min Rain = 0
KHES 201455Z 20012G17KT 28/13 A2997 RMK A01 T02790134  RH  043%=      5-min Rain = 0
KHES 201500Z 21014G20KT 28/13 A2997 RMK A01 T02810133  RH  042%=      5-min Rain = 0
KHES 201505Z 20014G19KT 28/13 A2997 RMK A01 T02810132  RH  041%=      5-min Rain = 0
KHES 201510Z 20014G20KT 28/13 A2997 RMK A01 T02830132  RH  041%=      5-min Rain = 0
KHES 201515Z 20012KT 29/13 A2997 RMK A01 T02850134  RH  041%=      5-min Rain = 0
KHES 201520Z 21011KT 29/14 A2997 RMK A01 T02870135  RH  041%=      5-min Rain = 0
KHES 201525Z 21012KT 29/14 A2997 RMK A01 T02910135  RH  040%=      5-min Rain = 0
KHES 201530Z 20013G19KT 29/13 A2997 RMK A01 T02890134  RH  040%=      5-min Rain = 0
KHES 201535Z 21011KT 29/14 A2997 RMK A01 T02940135  RH  039%=      5-min Rain = 0
KHES 201540Z 21013KT 29/13 A2996 RMK A01 T02930134  RH  039%=      5-min Rain = 0
KHES 201545Z 21012G17KT 30/14 A2996 RMK A01 T02950135  RH  039%=      5-min Rain = 0
KHES 201550Z 21011G16KT 30/14 A2996 RMK A01 T02990136  RH  038%=      5-min Rain = 0
KHES 201555Z 21012G19KT 30/14 A2996 RMK A01 T02990136  RH  038%=      5-min Rain = 0
KHES 201600Z 20013KT 30/14 A2996 RMK A01 T03010135  RH  038%=      5-min Rain = 0
KHES 201605Z 20013G19KT 30/14 A2996 RMK A01 T03030136  RH  038%=      5-min Rain = 0
KHES 201610Z 19013G20KT 30/14 A2995 RMK A01 T03040136  RH  037%=      5-min Rain = 0
KHES 201615Z 19014G19KT 31/14 A2995 RMK A01 T03090137  RH  037%=      5-min Rain = 0
KHES 201620Z 20013G18KT 31/14 A2995 RMK A01 T03120136  RH  036%=      5-min Rain = 0
KHES 201625Z 20012G17KT 32/14 A2995 RMK A01 T03150138  RH  035%=      5-min Rain = 0
KHES 201630Z 20012G17KT 32/14 A2995 RMK A01 T03190138  RH  035%=      5-min Rain = 0
KHES 201635Z 20012G17KT 32/14 A2995 RMK A01 T03170136  RH  035%=      5-min Rain = 0
KHES 201640Z 19012G18KT 32/14 A2995 RMK A01 T03170135  RH  034%=      5-min Rain = 0
KHES 201645Z 20010G17KT 32/14 A2995 RMK A01 T03240138  RH  034%=      5-min Rain = 0
KHES 201650Z 22012G17KT 33/14 A2995 RMK A01 T03260135  RH  033%=      5-min Rain = 0
KHES 201655Z 21011G17KT 33/14 A2995 RMK A01 T03280138  RH  033%=      5-min Rain = 0
KHES 201700Z 20011G17KT 33/14 A2995 RMK A01 T03330135  RH  031%=      5-min Rain = 0
KHES 201705Z 21011G17KT 33/14 A2995 RMK A01 T03330135  RH  031%=      5-min Rain = 0
KHES 201710Z 20013G18KT 33/13 A2995 RMK A01 T03330133  RH  031%=      5-min Rain = 0
KHES 201715Z 20011G17KT 34/14 A2995 RMK A01 T03360136  RH  031%=      5-min Rain = 0
KHES 201720Z 19011G19KT 34/14 A2995 RMK A01 T03410135  RH  030%=      5-min Rain = 0
KHES 201725Z 19011G18KT 35/14 A2995 RMK A01 T03450135  RH  029%=      5-min Rain = 0
KHES 201730Z 19013G18KT 34/13 A2995 RMK A01 T03440133  RH  029%=      5-min Rain = 0
KHES 201735Z 20011G16KT 35/13 A2995 RMK A01 T03460132  RH  029%=      5-min Rain = 0
KHES 201740Z 21013KT 35/13 A2995 RMK A01 T03460129  RH  028%=      5-min Rain = 0
KHES 201745Z 21012G18KT 35/13 A2995 RMK A01 T03500129  RH  027%=      5-min Rain = 0
KHES 201750Z 20012G17KT 35/13 A2995 RMK A01 T03510128  RH  027%=      5-min Rain = 0
KHES 201755Z 21012KT 35/13 A2995 RMK A01 T03490127  RH  027%=      5-min Rain = 0
KHES 201800Z 21012G17KT 35/12 A2994 RMK A01 T03500124  RH  027%=      5-min Rain = 0
KHES 201805Z 21011G17KT 36/12 A2994 RMK A01 T03550123  RH  026%=      5-min Rain = 0
KHES 201810Z 19011G17KT 36/12 A2994 RMK A01 T03580122  RH  025%=      5-min Rain = 0
KHES 201815Z 19011KT 36/12 A2994 RMK A01 T03600123  RH  025%=      5-min Rain = 0
KHES 201820Z 20012G19KT 36/12 A2994 RMK A01 T03640120  RH  024%=      5-min Rain = 0
KHES 201825Z 20012KT 36/12 A2994 RMK A01 T03610115  RH  024%=      5-min Rain = 0
KHES 201830Z 20011G16KT 36/12 A2994 RMK A01 T03640117  RH  023%=      5-min Rain = 0
KHES 201835Z 20012G18KT 36/11 A2994 RMK A01 T03640111  RH  023%=      5-min Rain = 0
KHES 201840Z 20011KT 36/11 A2994 RMK A01 T03640105  RH  022%=      5-min Rain = 0
KHES 201845Z 20012KT 37/11 A2993 RMK A01 T03660108  RH  022%=      5-min Rain = 0
KHES 201850Z 19012KT 37/11 A2993 RMK A01 T03690108  RH  021%=      5-min Rain = 0
KHES 201855Z 21010G15KT 37/11 A2993 RMK A01 T03700110  RH  022%=      5-min Rain = 0
KHES 201900Z 21012G17KT 37/11 A2993 RMK A01 T03690109  RH  022%=      5-min Rain = 0
KHES 201905Z 21011G17KT 37/10 A2993 RMK A01 T03720104  RH  021%=      5-min Rain = 0
KHES 201910Z 21012G17KT 37/10 A2993 RMK A01 T03710098  RH  020%=      5-min Rain = 0
KHES 201915Z 20010KT 37/10 A2992 RMK A01 T03730102  RH  020%=      5-min Rain = 0
KHES 201920Z 20010G16KT 38/11 A2992 RMK A01 T03780106  RH  020%=      5-min Rain = 0
KHES 201925Z 21011KT 38/10 A2992 RMK A01 T03780103  RH  020%=      5-min Rain = 0
KHES 201930Z 19011G16KT 38/11 A2992 RMK A01 T03760109  RH  021%=      5-min Rain = 0
KHES 201935Z 20010G15KT 38/11 A2992 RMK A01 T03760112  RH  021%=      5-min Rain = 0
KHES 201940Z 21012G17KT 38/11 A2991 RMK A01 T03810110  RH  020%=      5-min Rain = 0
KHES 201945Z 19012G18KT 38/11 A2991 RMK A01 T03770107  RH  020%=      5-min Rain = 0
KHES 201950Z 19012G17KT 38/11 A2991 RMK A01 T03770109  RH  021%=      5-min Rain = 0
KHES 201955Z 20011G17KT 38/11 A2991 RMK A01 T03790108  RH  020%=      5-min Rain = 0
KHES 202000Z 19011KT 38/11 A2991 RMK A01 T03790110  RH  021%=      5-min Rain = 0
KHES 202005Z 19009G14KT 38/11 A2991 RMK A01 T03790113  RH  021%=      5-min Rain = 0
KHES 202010Z 21010KT 38/11 A2991 RMK A01 T03820111  RH  020%=      5-min Rain = 0
KHES 202015Z 17011G16KT 38/11 A299 RMK A01 T03830110  RH  020%=      5-min Rain = 0
KHES 202020Z 18013G19KT 38/11 A299 RMK A01 T03830108  RH  020%=      5-min Rain = 0
KHES 202025Z 17012G18KT 38/11 A299 RMK A01 T03820106  RH  020%=      5-min Rain = 0
KHES 202030Z 17013G21KT 38/11 A299 RMK A01 T03820111  RH  020%=      5-min Rain = 0
KHES 202035Z 16012KT 38/12 A299 RMK A01 T03830115  RH  021%=      5-min Rain = 0
KHES 202040Z 18014KT 38/11 A299 RMK A01 T03840114  RH  021%=      5-min Rain = 0
KHES 202045Z 16014G20KT 39/11 A2989 RMK A01 T03850113  RH  020%=      5-min Rain = 0
KHES 202050Z 17016G22KT 38/11 A2989 RMK A01 T03830113  RH  021%=      5-min Rain = 0
KHES 202055Z 20013G19KT 38/12 A2989 RMK A01 T03820116  RH  021%=      5-min Rain = 0
KHES 202100Z 17011G17KT 39/12 A2989 RMK A01 T03870117  RH  021%=      5-min Rain = 0
KHES 202105Z 18014G20KT 39/11 A2989 RMK A01 T03880113  RH  020%=      5-min Rain = 0
KHES 202110Z 18015G23KT 39/11 A2989 RMK A01 T03880109  RH  019%=      5-min Rain = 0
KHES 202115Z 16013G21KT 39/12 A2989 RMK A01 T03860115  RH  021%=      5-min Rain = 0
KHES 202120Z 15013G20KT 38/12 A2988 RMK A01 T03830122  RH  022%=      5-min Rain = 0
KHES 202125Z 17015G21KT 38/12 A2988 RMK A01 T03830119  RH  021%=      5-min Rain = 0
KHES 202130Z 16015G20KT 38/11 A2988 RMK A01 T03800113  RH  021%=      5-min Rain = 0
KHES 202135Z 18013KT 39/12 A2988 RMK A01 T03870115  RH  020%=      5-min Rain = 0
KHES 202140Z 16017G22KT 38/12 A2988 RMK A01 T03840115  RH  021%=      5-min Rain = 0
KHES 202145Z 16011G19KT 38/12 A2988 RMK A01 T03820120  RH  022%=      5-min Rain = 0
KHES 202150Z 17012G19KT 39/12 A2988 RMK A01 T03880122  RH  021%=      5-min Rain = 0
KHES 202155Z 16013G22KT 39/12 A2988 RMK A01 T03870121  RH  021%=      5-min Rain = 0
KHES 202200Z 16013G24KT 39/12 A2987 RMK A01 T03880119  RH  021%=      5-min Rain = 0
KHES 202205Z 18014G20KT 39/12 A2987 RMK A01 T03880115  RH  020%=      5-min Rain = 0
KHES 202210Z 17014G20KT 39/12 A2987 RMK A01 T03870115  RH  020%=      5-min Rain = 0
KHES 202215Z 15014G21KT 38/12 A2987 RMK A01 T03840118  RH  021%=      5-min Rain = 0
KHES 202220Z 17013G18KT 39/12 A2987 RMK A01 T03850115  RH  021%=      5-min Rain = 0
KHES 202225Z 16013G21KT 39/12 A2987 RMK A01 T03860119  RH  021%=      5-min Rain = 0
KHES 202230Z 15016G23KT 39/12 A2986 RMK A01 T03860119  RH  021%=      5-min Rain = 0
KHES 202235Z 17014G21KT 39/12 A2986 RMK A01 T03860116  RH  021%=      5-min Rain = 0
KHES 202240Z 17013G21KT 39/11 A2986 RMK A01 T03860114  RH  020%=      5-min Rain = 0
KHES 202245Z 17013G19KT 39/12 A2986 RMK A01 T03850115  RH  021%=      5-min Rain = 0
KHES 202250Z 18013G19KT 39/11 A2986 RMK A01 T03860112  RH  020%=      5-min Rain = 0
KHES 202255Z 17012KT 39/11 A2986 RMK A01 T03890112  RH  020%=      5-min Rain = 0
KHES 202300Z 17015G20KT 39/12 A2986 RMK A01 T03880117  RH  021%=      5-min Rain = 0
KHES 202305Z 17014G20KT 39/11 A2986 RMK A01 T03850113  RH  020%=      5-min Rain = 0
KHES 202310Z 17015G20KT 38/12 A2986 RMK A01 T03830117  RH  021%=      5-min Rain = 0
KHES 202315Z 16013G20KT 38/12 A2985 RMK A01 T03840117  RH  021%=      5-min Rain = 0
KHES 202320Z 17012G19KT 38/12 A2985 RMK A01 T03840118  RH  021%=      5-min Rain = 0
KHES 202325Z 17014G20KT 38/11 A2985 RMK A01 T03820114  RH  021%=      5-min Rain = 0
KHES 202330Z 16012G19KT 38/11 A2985 RMK A01 T03840114  RH  021%=      5-min Rain = 0
KHES 202335Z 17017G22KT 38/11 A2985 RMK A01 T03800108  RH  020%=      5-min Rain = 0
KHES 202340Z 16014G19KT 38/12 A2985 RMK A01 T03790115  RH  021%=      5-min Rain = 0
KHES 202345Z 16013KT 38/12 A2985 RMK A01 T03800117  RH  022%=      5-min Rain = 0
KHES 202350Z 16016G23KT 38/12 A2985 RMK A01 T03770117  RH  022%=      5-min Rain = 0
KHES 202355Z 17013G20KT 38/12 A2985 RMK A01 T03790115  RH  021%=      5-min Rain = 0
KHES 210000Z 17015G22KT 38/11 A2985 RMK A01 T03770112  RH  021%=      5-min Rain = 0
KHES 210005Z 17016G22KT 38/12 A2985 RMK A01 T03750116  RH  022%=      5-min Rain = 0
KHES 210010Z 16014G19KT 37/12 A2985 RMK A01 T03730117  RH  022%=      5-min Rain = 0
KHES 210015Z 17014G20KT 37/12 A2985 RMK A01 T03720120  RH  023%=      5-min Rain = 0
KHES 210020Z 17016G22KT 37/12 A2985 RMK A01 T03700117  RH  023%=      5-min Rain = 0
KHES 210025Z 17015G21KT 37/12 A2985 RMK A01 T03690122  RH  024%=      5-min Rain = 0
KHES 210030Z 16015G20KT 37/12 A2985 RMK A01 T03680123  RH  024%=      5-min Rain = 0
KHES 210035Z 16017G23KT 37/12 A2985 RMK A01 T03650122  RH  024%=      5-min Rain = 0
KHES 210040Z 16016KT 36/12 A2985 RMK A01 T03630123  RH  025%=      5-min Rain = 0
KHES 210045Z 16014G19KT 36/12 A2986 RMK A01 T03630122  RH  025%=      5-min Rain = 0
KHES 210050Z 17015G21KT 36/12 A2986 RMK A01 T03610124  RH  025%=      5-min Rain = 0
KHES 210055Z 16015G22KT 36/12 A2986 RMK A01 T03600123  RH  025%=      5-min Rain = 0
KHES 210100Z 16013G21KT 36/12 A2986 RMK A01 T03580124  RH  025%=      5-min Rain = 0
KHES 210105Z 16013G18KT 36/13 A2986 RMK A01 T03570125  RH  026%=      5-min Rain = 0
KHES 210110Z 16011G17KT 36/13 A2986 RMK A01 T03550126  RH  026%=      5-min Rain = 0
KHES 210115Z 16012G17KT 35/12 A2987 RMK A01 T03530124  RH  026%=      5-min Rain = 0
KHES 210120Z 16012G17KT 35/12 A2987 RMK A01 T03520124  RH  026%=      5-min Rain = 0
KHES 210125Z 16010KT 35/13 A2987 RMK A01 T03500125  RH  027%=      5-min Rain = 0
KHES 210130Z 15009G14KT 35/13 A2987 RMK A01 T03470126  RH  027%=      5-min Rain = 0
KHES 210135Z 15010KT 35/13 A2987 RMK A01 T03450126  RH  028%=      5-min Rain = 0
KHES 210140Z 16010KT 34/13 A2988 RMK A01 T03420126  RH  028%=      5-min Rain = 0
KHES 210145Z 15010G15KT 34/13 A2987 RMK A01 T03400126  RH  029%=      5-min Rain = 0
KHES 210150Z 16011KT 34/13 A2987 RMK A01 T03370126  RH  029%=      5-min Rain = 0
KHES 210155Z 15010KT 34/13 A2987 RMK A01 T03350126  RH  029%=      5-min Rain = 0
KHES 210200Z 15011G16KT 33/13 A2987 RMK A01 T03330127  RH  030%=      5-min Rain = 0
KHES 210205Z 15009KT 33/13 A2987 RMK A01 T03300128  RH  031%=      5-min Rain = 0
KHES 210210Z 15010KT 33/13 A2987 RMK A01 T03260131  RH  032%=      5-min Rain = 0
KHES 210215Z 15009KT 32/13 A2987 RMK A01 T03230133  RH  033%=      5-min Rain = 0
KHES 210220Z 15010G15KT 32/14 A2987 RMK A01 T03190135  RH  034%=      5-min Rain = 0
KHES 210225Z 15011KT 32/14 A2988 RMK A01 T03190137  RH  034%=      5-min Rain = 0
KHES 210230Z 15010G15KT 32/14 A2988 RMK A01 T03180138  RH  035%=      5-min Rain = 0
KHES 210235Z 15010KT 32/14 A2988 RMK A01 T03150139  RH  036%=      5-min Rain = 0
KHES 210240Z 15010KT 31/14 A2988 RMK A01 T03130140  RH  037%=      5-min Rain = 0
KHES 210245Z 15009G14KT 31/14 A2988 RMK A01 T03100141  RH  037%=      5-min Rain = 0
KHES 210250Z 15009KT 31/14 A2989 RMK A01 T03090141  RH  037%=      5-min Rain = 0
KHES 210255Z 15009KT 31/14 A2989 RMK A01 T03070141  RH  038%=      5-min Rain = 0
KHES 210300Z 15010G15KT 31/14 A2989 RMK A01 T03060140  RH  038%=      5-min Rain = 0
KHES 210305Z 15010KT 31/14 A2989 RMK A01 T03050140  RH  038%=      5-min Rain = 0
KHES 210310Z 14009KT 30/14 A299 RMK A01 T03030140  RH  039%=      5-min Rain = 0
KHES 210315Z 15009KT 30/14 A299 RMK A01 T03020140  RH  039%=      5-min Rain = 0
KHES 210320Z 15010KT 30/14 A2991 RMK A01 T03010140  RH  039%=      5-min Rain = 0
KHES 210325Z 15009KT 30/14 A2991 RMK A01 T02980140  RH  040%=      5-min Rain = 0
KHES 210330Z 15010G15KT 30/14 A2991 RMK A01 T02970140  RH  040%=      5-min Rain = 0
KHES 210335Z 15011KT 30/14 A2991 RMK A01 T02960139  RH  040%=      5-min Rain = 0
KHES 210340Z 15009G14KT 30/14 A2991 RMK A01 T02960139  RH  040%=      5-min Rain = 0
KHES 210345Z 15010KT 29/14 A2991 RMK A01 T02940138  RH  040%=      5-min Rain = 0
KHES 210350Z 15010KT 29/14 A2992 RMK A01 T02940138  RH  040%=      5-min Rain = 0
KHES 210355Z 15009KT 29/14 A2992 RMK A01 T02930138  RH  040%=      5-min Rain = 0
KHES 210400Z 15008G13KT 29/14 A2992 RMK A01 T02910139  RH  041%=      5-min Rain = 0
KHES 210405Z 15009KT 29/14 A2993 RMK A01 T02870140  RH  042%=      5-min Rain = 0
KHES 210410Z 15009KT 29/14 A2993 RMK A01 T02850141  RH  043%=      5-min Rain = 0
KHES 210415Z 15009KT 28/14 A2993 RMK A01 T02830141  RH  043%=      5-min Rain = 0
KHES 210420Z 15009KT 28/14 A2993 RMK A01 T02810141  RH  044%=      5-min Rain = 0
KHES 210425Z 15009KT 28/14 A2993 RMK A01 T02810140  RH  044%=      5-min Rain = 0
KHES 210430Z 16007KT 28/14 A2993 RMK A01 T02800140  RH  044%=      5-min Rain = 0
KHES 210435Z 16009G14KT 28/14 A2994 RMK A01 T02780140  RH  044%=      5-min Rain = 0
KHES 210440Z 15008KT 28/14 A2994 RMK A01 T02770140  RH  045%=      5-min Rain = 0
KHES 210445Z 16008KT 28/14 A2994 RMK A01 T02750140  RH  045%=      5-min Rain = 0
KHES 210450Z 16008KT 27/14 A2994 RMK A01 T02730140  RH  046%=      5-min Rain = 0
KHES 210455Z 16008KT 27/14 A2994 RMK A01 T02700140  RH  047%=      5-min Rain = 0

Page generated in 0.0099 seconds.